Airport ICAO


12:35 UTC

10°C

Broken clouds


An affordable passengers' Moving Map for your aircraft. Made for the iPad and the iPhone
More information here

EGKA Shoreham


Shoreham By Sea UNITED KINGDOM   VFR


METAR EGKA 101150Z 27008KT 9999 BKN044 10/06 Q1027 0h45min

TAF EGKA 101057Z 1012/1019 29008KT 9999 BKN045 1h38min





NOTAMS

OPEN